createdAt,value
2022-09-20T00:03:42.939Z,8.50
2022-09-20T00:08:50.827Z,8.53
2022-09-20T00:13:59.912Z,8.54
2022-09-20T00:19:10.007Z,8.55
2022-09-20T00:24:19.445Z,8.58
2022-09-20T00:29:26.676Z,8.59
2022-09-20T00:34:51.352Z,8.60
2022-09-20T00:40:00.122Z,8.64
2022-09-20T00:45:09.936Z,8.65
2022-09-20T00:50:27.887Z,8.67
2022-09-20T00:55:37.663Z,8.70
2022-09-20T01:00:48.977Z,8.73
2022-09-20T01:05:57.467Z,8.76
2022-09-20T01:11:04.976Z,8.77
2022-09-20T01:16:16.363Z,8.78
2022-09-20T01:21:24.044Z,8.82
2022-09-20T01:26:53.573Z,8.83
2022-09-20T01:32:05.389Z,8.84
2022-09-20T01:37:25.524Z,8.83
2022-09-20T01:42:38.396Z,8.86
2022-09-20T01:47:53.934Z,8.86
2022-09-20T01:53:38.720Z,8.86
2022-09-20T01:59:31.440Z,8.89
2022-09-20T02:05:08.428Z,8.90
2022-09-20T02:10:36.485Z,8.92
2022-09-20T02:16:07.345Z,8.95
2022-09-20T02:21:28.763Z,8.99
2022-09-20T02:26:47.942Z,8.98
2022-09-20T02:32:11.228Z,8.97
2022-09-20T02:37:34.857Z,8.98
2022-09-20T02:42:47.545Z,9.00
2022-09-20T02:48:02.341Z,9.01
2022-09-20T02:53:26.539Z,9.01
2022-09-20T02:58:42.316Z,9.03
2022-09-20T03:03:59.068Z,9.05
2022-09-20T03:09:17.601Z,9.05
2022-09-20T03:24:15.337Z,9.13
2022-09-20T03:29:36.573Z,9.11
2022-09-20T03:34:54.343Z,9.10
2022-09-20T03:40:26.557Z,9.12
2022-09-20T03:46:04.366Z,9.12
2022-09-20T03:51:30.435Z,9.10
2022-09-20T03:57:19.581Z,9.10
2022-09-20T04:02:42.975Z,9.10
2022-09-20T04:08:05.239Z,9.08
2022-09-20T04:13:26.568Z,9.07
2022-09-20T04:18:41.287Z,9.05
2022-09-20T04:23:57.679Z,9.02
2022-09-20T04:29:20.427Z,9.01
2022-09-20T04:34:51.688Z,9.01
2022-09-20T04:40:11.094Z,8.99
2022-09-20T04:45:35.255Z,8.98
2022-09-20T04:51:12.930Z,8.99
2022-09-20T04:56:29.858Z,8.98
2022-09-20T05:02:26.145Z,8.98
2022-09-20T05:08:14.472Z,9.02
2022-09-20T05:13:39.791Z,9.04
2022-09-20T05:19:13.729Z,9.06
2022-09-20T05:24:40.266Z,9.09
2022-09-20T05:29:57.099Z,9.11
2022-09-20T05:35:13.943Z,9.12
2022-09-20T05:40:30.024Z,9.15
2022-09-20T05:45:53.972Z,9.15
2022-09-20T05:51:05.761Z,9.15
2022-09-20T05:56:23.692Z,9.16
2022-09-20T06:01:35.485Z,9.18
2022-09-20T06:06:57.201Z,9.22
2022-09-20T06:12:24.426Z,9.27
2022-09-20T06:17:38.571Z,9.32
2022-09-20T06:22:50.063Z,9.36
2022-09-20T06:28:01.465Z,9.40
2022-09-20T06:33:18.379Z,9.43
2022-09-20T06:38:59.171Z,9.42
2022-09-20T06:44:06.600Z,9.43
2022-09-20T06:49:13.588Z,9.43
2022-09-20T06:54:23.743Z,9.42
2022-09-20T06:59:32.180Z,9.39
2022-09-20T07:04:39.309Z,9.38
2022-09-20T07:09:50.215Z,9.35
2022-09-20T07:14:57.395Z,9.33
2022-09-20T07:20:17.411Z,9.33
2022-09-20T07:25:28.195Z,9.35
2022-09-20T07:30:35.378Z,9.39
2022-09-20T07:35:41.749Z,9.50
2022-09-20T07:45:13.325Z,9.77
2022-09-20T07:50:20.399Z,9.92
2022-09-20T07:55:27.254Z,10.06
2022-09-20T08:00:32.521Z,10.22
2022-09-20T08:05:39.660Z,10.29
2022-09-20T08:10:47.185Z,10.39
2022-09-20T08:16:02.323Z,10.48
2022-09-20T08:21:11.295Z,10.49
2022-09-20T08:26:20.410Z,10.52
2022-09-20T08:31:31.853Z,10.57
2022-09-20T08:36:41.417Z,10.58
2022-09-20T08:45:22.268Z,10.54
2022-09-20T08:50:31.093Z,10.52
2022-09-20T08:55:40.628Z,10.58
2022-09-20T09:00:49.853Z,10.73
2022-09-20T09:05:58.559Z,10.81
2022-09-20T09:11:14.178Z,10.85
2022-09-20T09:16:25.698Z,10.90
2022-09-20T09:21:39.063Z,10.95
2022-09-20T09:26:46.927Z,11.05
2022-09-20T09:31:55.369Z,11.25
2022-09-20T09:37:02.515Z,11.41
2022-09-20T09:42:26.907Z,11.39
2022-09-20T09:47:39.896Z,11.46
2022-09-20T09:53:00.695Z,11.63
2022-09-20T09:58:22.917Z,11.60
2022-09-20T10:03:53.029Z,11.38
2022-09-20T10:09:13.513Z,11.04
2022-09-20T10:14:30.855Z,10.70
2022-09-20T10:19:53.049Z,10.41
2022-09-20T10:25:15.681Z,10.33
2022-09-20T10:30:27.258Z,10.34
2022-09-20T10:35:53.255Z,10.34
2022-09-20T10:41:44.137Z,10.31
2022-09-20T10:47:02.761Z,10.25
2022-09-20T10:52:23.727Z,10.29
2022-09-20T10:58:03.574Z,10.50
2022-09-20T11:03:26.869Z,10.78
2022-09-20T11:08:38.364Z,10.98
2022-09-20T11:13:53.625Z,11.18
2022-09-20T11:19:07.459Z,11.40
2022-09-20T11:24:29.321Z,11.61
2022-09-20T11:29:41.087Z,11.84
2022-09-20T11:34:55.793Z,12.06
2022-09-20T11:40:08.490Z,11.97
2022-09-20T11:45:16.018Z,11.71
2022-09-20T11:50:52.860Z,11.49
2022-09-20T11:56:05.485Z,11.42
2022-09-20T12:01:16.495Z,11.47
2022-09-20T12:06:33.366Z,11.61
2022-09-20T12:11:42.132Z,11.67
2022-09-20T12:16:53.106Z,11.69
2022-09-20T12:22:31.107Z,11.83
2022-09-20T12:27:58.736Z,11.98
2022-09-20T12:33:06.052Z,12.00
2022-09-20T12:38:42.631Z,11.86
2022-09-20T12:44:07.130Z,11.86
2022-09-20T12:50:08.652Z,11.97
2022-09-20T12:55:38.223Z,12.21
2022-09-20T13:00:50.247Z,12.36
2022-09-20T13:06:27.441Z,12.34
2022-09-20T13:11:41.642Z,12.31
2022-09-20T13:16:55.228Z,12.16
2022-09-20T13:22:08.119Z,12.08
2022-09-20T13:27:20.780Z,12.24
2022-09-20T13:32:31.198Z,12.32
2022-09-20T13:37:43.643Z,12.27
2022-09-20T13:42:52.461Z,12.17
2022-09-20T13:48:02.616Z,12.00
2022-09-20T13:53:39.469Z,11.83
2022-09-20T13:58:46.813Z,11.66
2022-09-20T14:03:54.634Z,11.62
2022-09-20T14:09:09.844Z,11.59
2022-09-20T14:14:22.237Z,11.70
2022-09-20T14:19:33.351Z,11.79
2022-09-20T14:24:40.500Z,11.86
2022-09-20T14:29:49.184Z,11.98
2022-09-20T14:35:08.339Z,12.13
2022-09-20T14:40:26.953Z,12.18
2022-09-20T14:45:37.847Z,12.12
2022-09-20T14:50:47.334Z,12.09
2022-09-20T14:56:09.317Z,12.10
2022-09-20T15:01:25.031Z,12.18
2022-09-20T15:06:32.010Z,12.23
2022-09-20T15:11:39.651Z,12.19
2022-09-20T15:16:46.843Z,12.04
2022-09-20T15:21:54.226Z,11.92
2022-09-20T15:27:01.414Z,11.87
2022-09-20T15:32:09.429Z,11.87
2022-09-20T15:37:16.855Z,11.85
2022-09-20T15:42:24.244Z,11.76
2022-09-20T15:47:32.076Z,11.69
2022-09-20T15:52:41.414Z,11.67
2022-09-20T15:57:50.068Z,11.66
2022-09-20T16:02:57.455Z,11.69
2022-09-20T16:08:05.022Z,11.61
2022-09-20T16:13:12.503Z,11.54
2022-09-20T16:18:37.475Z,11.41
2022-09-20T16:23:49.555Z,11.25
2022-09-20T16:28:58.096Z,11.08
2022-09-20T16:34:07.745Z,10.90
2022-09-20T16:39:16.104Z,10.76
2022-09-20T16:44:27.707Z,10.65
2022-09-20T16:49:38.379Z,10.57
2022-09-20T16:54:45.549Z,10.53
2022-09-20T16:59:56.027Z,10.41
2022-09-20T17:05:03.777Z,10.28
2022-09-20T17:10:12.658Z,10.15
2022-09-20T17:15:21.407Z,10.02
2022-09-20T17:20:30.115Z,9.92
2022-09-20T17:25:47.546Z,9.83
2022-09-20T17:30:56.465Z,9.76
2022-09-20T17:36:06.930Z,9.75
2022-09-20T17:41:19.501Z,9.73
2022-09-20T17:46:30.354Z,9.70
2022-09-20T17:51:40.387Z,9.67
2022-09-20T17:56:49.873Z,9.65
2022-09-20T18:01:58.300Z,9.66
2022-09-20T18:07:08.581Z,9.68
2022-09-20T18:12:19.805Z,9.68
2022-09-20T18:17:28.491Z,9.67
2022-09-20T18:22:35.802Z,9.66
2022-09-20T18:27:43.836Z,9.66
2022-09-20T18:32:57.473Z,9.61
2022-09-20T18:38:05.388Z,9.56
2022-09-20T18:43:14.560Z,9.52
2022-09-20T18:48:23.432Z,9.47
2022-09-20T18:53:38.366Z,9.43
2022-09-20T18:58:45.901Z,9.42
2022-09-20T19:04:01.164Z,9.39
2022-09-20T19:09:20.558Z,9.36
2022-09-20T19:14:38.093Z,9.35
2022-09-20T19:19:54.866Z,9.34
2022-09-20T19:25:20.541Z,9.33
2022-09-20T19:30:32.859Z,9.31
2022-09-20T19:35:49.600Z,9.30
2022-09-20T19:41:04.152Z,9.28
2022-09-20T19:46:15.192Z,9.26
2022-09-20T19:51:23.857Z,9.22
2022-09-20T19:56:46.020Z,9.18
2022-09-20T20:01:55.248Z,9.18
2022-09-20T20:07:08.336Z,9.16
2022-09-20T20:12:25.901Z,9.14
2022-09-20T20:17:47.424Z,9.13
2022-09-20T20:34:17.803Z,9.11
2022-09-20T20:39:25.504Z,9.04
2022-09-20T20:44:35.219Z,9.00
2022-09-20T20:49:43.648Z,8.97
2022-09-20T20:54:51.308Z,8.95
2022-09-20T21:00:00.989Z,8.95
2022-09-20T21:05:10.722Z,8.93
2022-09-20T21:10:17.943Z,8.90
2022-09-20T21:15:27.527Z,8.81
2022-09-20T21:20:35.418Z,8.70
2022-09-20T21:25:45.419Z,8.66
2022-09-20T21:31:04.275Z,8.68
2022-09-20T21:36:14.029Z,8.67
2022-09-20T21:41:23.495Z,8.61
2022-09-20T21:46:33.405Z,8.55
2022-09-20T21:51:42.111Z,8.55
2022-09-20T21:56:50.139Z,8.58
2022-09-20T22:01:59.129Z,8.58
2022-09-20T22:07:06.312Z,8.53
2022-09-20T22:12:14.586Z,8.55
2022-09-20T22:17:24.326Z,8.52
2022-09-20T22:22:36.156Z,8.50
2022-09-20T22:27:45.563Z,8.54
2022-09-20T22:32:52.723Z,8.56
2022-09-20T22:38:03.342Z,8.57
2022-09-20T22:43:13.400Z,8.58
2022-09-20T22:48:22.593Z,8.58
2022-09-20T22:53:36.392Z,8.60
2022-09-20T22:58:46.578Z,8.61
2022-09-20T23:04:01.092Z,8.60
2022-09-20T23:09:10.587Z,8.59
2022-09-20T23:14:21.640Z,8.57
2022-09-20T23:19:31.134Z,8.56
2022-09-20T23:24:38.030Z,8.55
2022-09-20T23:29:45.841Z,8.54
2022-09-20T23:34:52.820Z,8.53
2022-09-20T23:40:03.174Z,8.51
2022-09-20T23:45:13.845Z,8.49
2022-09-20T23:50:21.377Z,8.49
2022-09-20T23:55:29.281Z,8.48
